Malaysia Virtual Airlines Airport Information Service

Macau International Airport

ICAO: VMMC Country: Macau
Latitude: 22.1496 Longitude: 113.592
Latest Arrival : AK188 (WMKK-VMMC) Latest Departure : AK1302 (VMMC-WBKK)


WX CaptureLIVE
Data provided by noaa.gov | Fetched at 17:56:57

METAR : VMMC 261730Z 28003KT 240V310 CAVOK 30/27 Q0997 NOSIG

TAF : VMMC 261100Z 2612/2718 22010KT 9999 FEW015 TEMPO 2704/2710 VRB18G28KT 2500 TSRA FEW008CB SCT015


Runway Data for VMMC
Data provided by openaviationdata.com

Runway ID Mag Var Hdg Length Elevation Surface ILS Freq ILS Id ILS Slope
16 -2 163° 11048 ft 20 ft Concrete 111.7 MCS 0
34 -2 343° 11048 ft 20 ft Concrete 109.7 MCN 3

Macau International Airport, Macau
Use only for reference purposes



Not for navigational purposes.